Terminal Aerodrome Forecast
Issued by NWS

Home | Current Version | Previous Version | Text Only | Print | Product List | Glossary On
Versions: 1 2 3 4 5 6 7 8 9 10 11 12 13 14 15 16 17 18 19 20 21 22 23 24 25 26 27 28 29 30 31 32 33 34 35 36 37 38 39 40 41 42 43 44 45 46
000
FTUS42 KRAH 041624 AAB
TAFRWI
TAF AMD
KRWI 041624Z 0416/0512 25010G20KT P6SM VCSH SCT030 SCT150
      TEMPO 0416/0418 3SM SHRA BR BKN030
     FM041800 24012G24KT P6SM SCT045 BKN120
      TEMPO 0422/0501 VRB20G35KT 2SM TSRA SCT025CB BKN040
     FM050100 24009KT P6SM BKN045 BKN100=

USA.gov is the U.S. government's official web portal to all federal, state and local government web resources and services.